sensor_id;sensor_type;location;lat;lon;timestamp;P1;durP1;ratioP1;P2;durP2;ratioP2
75059;SDS011;63640;59.264;18.116;2022-12-18T00:01:18;23.08;;;9.73;;
75059;SDS011;63640;59.264;18.116;2022-12-18T00:03:46;23.17;;;10.57;;
75059;SDS011;63640;59.264;18.116;2022-12-18T00:06:12;26.67;;;11.02;;
75059;SDS011;63640;59.264;18.116;2022-12-18T00:08:39;21.38;;;9.55;;
75059;SDS011;63640;59.264;18.116;2022-12-18T00:11:06;20.67;;;9.40;;
75059;SDS011;63640;59.264;18.116;2022-12-18T00:13:32;27.88;;;11.35;;
75059;SDS011;63640;59.264;18.116;2022-12-18T00:16:02;19.42;;;9.00;;
75059;SDS011;63640;59.264;18.116;2022-12-18T00:18:32;23.65;;;10.52;;
75059;SDS011;63640;59.264;18.116;2022-12-18T00:20:58;23.10;;;10.23;;
75059;SDS011;63640;59.264;18.116;2022-12-18T00:23:25;21.80;;;10.82;;
75059;SDS011;63640;59.264;18.116;2022-12-18T00:25:51;22.25;;;10.45;;
75059;SDS011;63640;59.264;18.116;2022-12-18T00:28:16;26.70;;;11.10;;
75059;SDS011;63640;59.264;18.116;2022-12-18T00:30:42;21.77;;;9.45;;
75059;SDS011;63640;59.264;18.116;2022-12-18T00:33:07;25.88;;;11.60;;
75059;SDS011;63640;59.264;18.116;2022-12-18T00:35:33;22.95;;;10.35;;
75059;SDS011;63640;59.264;18.116;2022-12-18T00:37:58;21.02;;;9.52;;
75059;SDS011;63640;59.264;18.116;2022-12-18T00:40:24;22.55;;;10.32;;
75059;SDS011;63640;59.264;18.116;2022-12-18T00:42:49;25.75;;;12.15;;
75059;SDS011;63640;59.264;18.116;2022-12-18T00:45:21;20.88;;;9.82;;
75059;SDS011;63640;59.264;18.116;2022-12-18T00:47:56;22.65;;;9.32;;
75059;SDS011;63640;59.264;18.116;2022-12-18T00:50:23;23.60;;;10.10;;
75059;SDS011;63640;59.264;18.116;2022-12-18T00:52:49;21.65;;;9.27;;
75059;SDS011;63640;59.264;18.116;2022-12-18T00:55:15;21.63;;;8.63;;
75059;SDS011;63640;59.264;18.116;2022-12-18T00:57:41;21.42;;;9.57;;
75059;SDS011;63640;59.264;18.116;2022-12-18T01:00:07;23.55;;;9.35;;
75059;SDS011;63640;59.264;18.116;2022-12-18T01:02:35;19.90;;;9.13;;
75059;SDS011;63640;59.264;18.116;2022-12-18T01:05:00;19.52;;;9.18;;
75059;SDS011;63640;59.264;18.116;2022-12-18T01:07:26;22.05;;;9.88;;
75059;SDS011;63640;59.264;18.116;2022-12-18T01:09:51;19.13;;;9.50;;
75059;SDS011;63640;59.264;18.116;2022-12-18T01:12:17;25.77;;;10.98;;
75059;SDS011;63640;59.264;18.116;2022-12-18T01:14:43;21.77;;;8.65;;
75059;SDS011;63640;59.264;18.116;2022-12-18T01:17:08;21.80;;;10.15;;
75059;SDS011;63640;59.264;18.116;2022-12-18T01:19:35;24.02;;;10.48;;
75059;SDS011;63640;59.264;18.116;2022-12-18T01:22:01;19.73;;;9.77;;
75059;SDS011;63640;59.264;18.116;2022-12-18T01:24:26;24.67;;;9.23;;
75059;SDS011;63640;59.264;18.116;2022-12-18T01:26:52;18.55;;;7.97;;
75059;SDS011;63640;59.264;18.116;2022-12-18T01:29:17;20.65;;;9.57;;
75059;SDS011;63640;59.264;18.116;2022-12-18T01:31:43;21.00;;;9.90;;
75059;SDS011;63640;59.264;18.116;2022-12-18T01:34:08;24.40;;;10.18;;
75059;SDS011;63640;59.264;18.116;2022-12-18T01:36:35;25.65;;;10.95;;
75059;SDS011;63640;59.264;18.116;2022-12-18T01:39:06;22.48;;;10.90;;
75059;SDS011;63640;59.264;18.116;2022-12-18T01:41:33;19.88;;;9.05;;
75059;SDS011;63640;59.264;18.116;2022-12-18T01:49:52;24.50;;;10.48;;
75059;SDS011;63640;59.264;18.116;2022-12-18T01:52:18;18.85;;;8.85;;
75059;SDS011;63640;59.264;18.116;2022-12-18T01:54:45;18.73;;;9.43;;
75059;SDS011;63640;59.264;18.116;2022-12-18T01:57:13;18.88;;;9.13;;
75059;SDS011;63640;59.264;18.116;2022-12-18T01:59:38;18.17;;;10.25;;
75059;SDS011;63640;59.264;18.116;2022-12-18T02:02:05;28.08;;;9.82;;
75059;SDS011;63640;59.264;18.116;2022-12-18T02:04:31;22.75;;;10.30;;
75059;SDS011;63640;59.264;18.116;2022-12-18T02:07:06;20.45;;;8.77;;
75059;SDS011;63640;59.264;18.116;2022-12-18T02:12:35;22.25;;;9.85;;
75059;SDS011;63640;59.264;18.116;2022-12-18T02:15:30;23.92;;;11.05;;
75059;SDS011;63640;59.264;18.116;2022-12-18T02:18:05;19.55;;;9.95;;
75059;SDS011;63640;59.264;18.116;2022-12-18T02:20:43;19.45;;;9.35;;
75059;SDS011;63640;59.264;18.116;2022-12-18T02:26:18;23.83;;;10.70;;
75059;SDS011;63640;59.264;18.116;2022-12-18T02:29:02;23.83;;;9.45;;
75059;SDS011;63640;59.264;18.116;2022-12-18T02:31:38;21.17;;;9.95;;
75059;SDS011;63640;59.264;18.116;2022-12-18T02:34:07;22.30;;;9.93;;
75059;SDS011;63640;59.264;18.116;2022-12-18T02:36:34;23.50;;;10.82;;
75059;SDS011;63640;59.264;18.116;2022-12-18T02:39:02;23.75;;;10.85;;
75059;SDS011;63640;59.264;18.116;2022-12-18T02:41:28;21.63;;;9.55;;
75059;SDS011;63640;59.264;18.116;2022-12-18T02:44:00;21.10;;;8.88;;
75059;SDS011;63640;59.264;18.116;2022-12-18T02:46:37;18.17;;;8.50;;
75059;SDS011;63640;59.264;18.116;2022-12-18T02:49:11;26.10;;;11.75;;
75059;SDS011;63640;59.264;18.116;2022-12-18T02:52:16;22.92;;;10.40;;
75059;SDS011;63640;59.264;18.116;2022-12-18T02:55:08;18.48;;;8.80;;
75059;SDS011;63640;59.264;18.116;2022-12-18T02:57:58;17.70;;;9.20;;
75059;SDS011;63640;59.264;18.116;2022-12-18T03:03:24;17.48;;;8.68;;
75059;SDS011;63640;59.264;18.116;2022-12-18T03:05:57;21.38;;;9.18;;
75059;SDS011;63640;59.264;18.116;2022-12-18T03:08:28;22.48;;;8.85;;
75059;SDS011;63640;59.264;18.116;2022-12-18T03:13:34;20.65;;;8.60;;
75059;SDS011;63640;59.264;18.116;2022-12-18T03:16:03;21.17;;;8.98;;
75059;SDS011;63640;59.264;18.116;2022-12-18T03:18:35;16.30;;;8.15;;
75059;SDS011;63640;59.264;18.116;2022-12-18T03:21:40;18.33;;;8.20;;
75059;SDS011;63640;59.264;18.116;2022-12-18T03:24:11;20.40;;;8.57;;
75059;SDS011;63640;59.264;18.116;2022-12-18T03:26:37;16.88;;;8.57;;
75059;SDS011;63640;59.264;18.116;2022-12-18T03:29:12;19.95;;;8.50;;
75059;SDS011;63640;59.264;18.116;2022-12-18T03:31:44;15.52;;;7.07;;
75059;SDS011;63640;59.264;18.116;2022-12-18T03:34:15;16.67;;;8.00;;
75059;SDS011;63640;59.264;18.116;2022-12-18T03:36:44;22.42;;;9.13;;
75059;SDS011;63640;59.264;18.116;2022-12-18T03:39:10;17.65;;;6.95;;
75059;SDS011;63640;59.264;18.116;2022-12-18T03:41:52;20.02;;;8.95;;
75059;SDS011;63640;59.264;18.116;2022-12-18T03:47:11;18.23;;;8.40;;
75059;SDS011;63640;59.264;18.116;2022-12-18T03:52:33;21.15;;;8.77;;
75059;SDS011;63640;59.264;18.116;2022-12-18T03:55:02;18.77;;;9.57;;
75059;SDS011;63640;59.264;18.116;2022-12-18T03:57:29;17.02;;;8.40;;
75059;SDS011;63640;59.264;18.116;2022-12-18T03:59:56;22.27;;;7.85;;
75059;SDS011;63640;59.264;18.116;2022-12-18T04:02:25;21.45;;;9.38;;
75059;SDS011;63640;59.264;18.116;2022-12-18T04:04:51;17.83;;;9.02;;
75059;SDS011;63640;59.264;18.116;2022-12-18T04:07:18;17.25;;;8.13;;
75059;SDS011;63640;59.264;18.116;2022-12-18T04:09:46;15.60;;;6.53;;
75059;SDS011;63640;59.264;18.116;2022-12-18T04:12:12;20.55;;;8.77;;
75059;SDS011;63640;59.264;18.116;2022-12-18T04:14:37;17.02;;;7.43;;
75059;SDS011;63640;59.264;18.116;2022-12-18T04:17:03;15.88;;;7.25;;
75059;SDS011;63640;59.264;18.116;2022-12-18T04:19:28;19.35;;;8.15;;
75059;SDS011;63640;59.264;18.116;2022-12-18T04:21:54;21.40;;;9.05;;
75059;SDS011;63640;59.264;18.116;2022-12-18T04:24:20;19.13;;;8.40;;
75059;SDS011;63640;59.264;18.116;2022-12-18T04:26:45;18.63;;;8.25;;
75059;SDS011;63640;59.264;18.116;2022-12-18T04:29:11;17.83;;;8.85;;
75059;SDS011;63640;59.264;18.116;2022-12-18T04:31:36;20.35;;;8.07;;
75059;SDS011;63640;59.264;18.116;2022-12-18T04:34:02;16.20;;;7.20;;
75059;SDS011;63640;59.264;18.116;2022-12-18T04:36:28;16.63;;;8.38;;
75059;SDS011;63640;59.264;18.116;2022-12-18T04:38:54;16.48;;;7.43;;
75059;SDS011;63640;59.264;18.116;2022-12-18T04:41:20;19.25;;;8.18;;
75059;SDS011;63640;59.264;18.116;2022-12-18T04:43:45;18.65;;;8.18;;
75059;SDS011;63640;59.264;18.116;2022-12-18T04:46:11;19.65;;;7.97;;
75059;SDS011;63640;59.264;18.116;2022-12-18T04:48:37;17.67;;;7.20;;
75059;SDS011;63640;59.264;18.116;2022-12-18T04:51:03;20.02;;;8.35;;
75059;SDS011;63640;59.264;18.116;2022-12-18T04:53:29;17.58;;;7.70;;
75059;SDS011;63640;59.264;18.116;2022-12-18T04:56:05;16.58;;;7.07;;
75059;SDS011;63640;59.264;18.116;2022-12-18T04:58:31;18.15;;;7.57;;
75059;SDS011;63640;59.264;18.116;2022-12-18T05:00:56;15.00;;;6.78;;
75059;SDS011;63640;59.264;18.116;2022-12-18T05:03:22;18.35;;;8.13;;
75059;SDS011;63640;59.264;18.116;2022-12-18T05:05:50;21.08;;;9.15;;
75059;SDS011;63640;59.264;18.116;2022-12-18T05:08:16;15.10;;;6.88;;
75059;SDS011;63640;59.264;18.116;2022-12-18T05:10:42;17.35;;;7.43;;
75059;SDS011;63640;59.264;18.116;2022-12-18T05:13:07;17.00;;;7.40;;
75059;SDS011;63640;59.264;18.116;2022-12-18T05:15:33;22.25;;;8.85;;
75059;SDS011;63640;59.264;18.116;2022-12-18T05:17:58;18.95;;;8.07;;
75059;SDS011;63640;59.264;18.116;2022-12-18T05:20:24;17.10;;;6.53;;
75059;SDS011;63640;59.264;18.116;2022-12-18T05:22:51;15.85;;;7.50;;
75059;SDS011;63640;59.264;18.116;2022-12-18T05:25:17;19.33;;;7.85;;
75059;SDS011;63640;59.264;18.116;2022-12-18T05:27:43;16.70;;;6.72;;
75059;SDS011;63640;59.264;18.116;2022-12-18T05:30:10;17.35;;;7.68;;
75059;SDS011;63640;59.264;18.116;2022-12-18T05:32:36;16.60;;;7.88;;
75059;SDS011;63640;59.264;18.116;2022-12-18T05:35:02;16.95;;;7.55;;
75059;SDS011;63640;59.264;18.116;2022-12-18T05:37:28;17.92;;;7.50;;
75059;SDS011;63640;59.264;18.116;2022-12-18T05:39:54;16.27;;;7.38;;
75059;SDS011;63640;59.264;18.116;2022-12-18T05:42:19;18.48;;;7.55;;
75059;SDS011;63640;59.264;18.116;2022-12-18T05:44:45;17.10;;;8.05;;
75059;SDS011;63640;59.264;18.116;2022-12-18T05:47:10;14.68;;;6.35;;
75059;SDS011;63640;59.264;18.116;2022-12-18T05:49:36;15.23;;;7.45;;
75059;SDS011;63640;59.264;18.116;2022-12-18T05:52:01;17.67;;;7.63;;
75059;SDS011;63640;59.264;18.116;2022-12-18T05:54:27;13.05;;;6.28;;
75059;SDS011;63640;59.264;18.116;2022-12-18T05:56:53;18.30;;;7.72;;
75059;SDS011;63640;59.264;18.116;2022-12-18T05:59:19;19.67;;;6.88;;
75059;SDS011;63640;59.264;18.116;2022-12-18T06:01:44;18.35;;;6.95;;
75059;SDS011;63640;59.264;18.116;2022-12-18T06:04:11;18.85;;;8.93;;
75059;SDS011;63640;59.264;18.116;2022-12-18T06:06:36;13.60;;;6.53;;
75059;SDS011;63640;59.264;18.116;2022-12-18T06:09:02;15.48;;;6.90;;
75059;SDS011;63640;59.264;18.116;2022-12-18T06:11:33;18.20;;;6.40;;
75059;SDS011;63640;59.264;18.116;2022-12-18T06:13:59;14.52;;;6.05;;
75059;SDS011;63640;59.264;18.116;2022-12-18T06:16:25;20.20;;;7.53;;
75059;SDS011;63640;59.264;18.116;2022-12-18T06:18:51;18.58;;;7.57;;
75059;SDS011;63640;59.264;18.116;2022-12-18T06:21:16;18.75;;;7.93;;
75059;SDS011;63640;59.264;18.116;2022-12-18T06:23:42;15.18;;;6.03;;
75059;SDS011;63640;59.264;18.116;2022-12-18T06:26:09;15.60;;;6.72;;
75059;SDS011;63640;59.264;18.116;2022-12-18T06:28:36;15.68;;;6.82;;
75059;SDS011;63640;59.264;18.116;2022-12-18T06:31:02;17.73;;;6.55;;
75059;SDS011;63640;59.264;18.116;2022-12-18T06:33:29;13.15;;;6.32;;
75059;SDS011;63640;59.264;18.116;2022-12-18T06:35:59;19.63;;;7.07;;
75059;SDS011;63640;59.264;18.116;2022-12-18T06:38:26;18.65;;;8.25;;
75059;SDS011;63640;59.264;18.116;2022-12-18T06:40:51;16.63;;;7.55;;
75059;SDS011;63640;59.264;18.116;2022-12-18T06:43:17;16.02;;;6.82;;
75059;SDS011;63640;59.264;18.116;2022-12-18T06:45:42;19.45;;;9.20;;
75059;SDS011;63640;59.264;18.116;2022-12-18T06:48:08;17.20;;;7.72;;
75059;SDS011;63640;59.264;18.116;2022-12-18T06:50:34;18.67;;;7.75;;
75059;SDS011;63640;59.264;18.116;2022-12-18T06:52:59;20.80;;;8.35;;
75059;SDS011;63640;59.264;18.116;2022-12-18T06:55:25;18.98;;;7.72;;
75059;SDS011;63640;59.264;18.116;2022-12-18T06:57:50;15.85;;;6.47;;
75059;SDS011;63640;59.264;18.116;2022-12-18T07:00:16;15.45;;;6.88;;
75059;SDS011;63640;59.264;18.116;2022-12-18T07:02:42;19.65;;;7.30;;
75059;SDS011;63640;59.264;18.116;2022-12-18T07:05:07;18.10;;;6.93;;
75059;SDS011;63640;59.264;18.116;2022-12-18T07:07:34;18.40;;;8.13;;
75059;SDS011;63640;59.264;18.116;2022-12-18T07:10:00;16.95;;;7.35;;
75059;SDS011;63640;59.264;18.116;2022-12-18T07:12:26;17.50;;;7.70;;
75059;SDS011;63640;59.264;18.116;2022-12-18T07:14:52;19.58;;;7.40;;
75059;SDS011;63640;59.264;18.116;2022-12-18T07:17:17;18.17;;;7.40;;
75059;SDS011;63640;59.264;18.116;2022-12-18T07:19:43;23.02;;;9.40;;
75059;SDS011;63640;59.264;18.116;2022-12-18T07:22:08;16.95;;;7.43;;
75059;SDS011;63640;59.264;18.116;2022-12-18T07:24:34;18.52;;;7.43;;
75059;SDS011;63640;59.264;18.116;2022-12-18T07:27:00;17.45;;;7.28;;
75059;SDS011;63640;59.264;18.116;2022-12-18T07:29:25;20.65;;;8.00;;
75059;SDS011;63640;59.264;18.116;2022-12-18T07:31:51;18.90;;;8.45;;
75059;SDS011;63640;59.264;18.116;2022-12-18T07:34:17;22.05;;;9.35;;
75059;SDS011;63640;59.264;18.116;2022-12-18T07:36:42;18.35;;;7.88;;
75059;SDS011;63640;59.264;18.116;2022-12-18T07:39:08;19.08;;;7.72;;
75059;SDS011;63640;59.264;18.116;2022-12-18T07:41:33;20.08;;;7.85;;
75059;SDS011;63640;59.264;18.116;2022-12-18T07:43:59;20.65;;;8.95;;
75059;SDS011;63640;59.264;18.116;2022-12-18T07:46:24;24.15;;;8.27;;
75059;SDS011;63640;59.264;18.116;2022-12-18T07:48:50;19.25;;;7.85;;
75059;SDS011;63640;59.264;18.116;2022-12-18T07:51:15;20.13;;;8.63;;
75059;SDS011;63640;59.264;18.116;2022-12-18T07:53:41;21.50;;;8.73;;
75059;SDS011;63640;59.264;18.116;2022-12-18T07:56:07;21.42;;;9.80;;
75059;SDS011;63640;59.264;18.116;2022-12-18T07:58:35;19.23;;;8.70;;
75059;SDS011;63640;59.264;18.116;2022-12-18T08:01:08;18.42;;;7.95;;
75059;SDS011;63640;59.264;18.116;2022-12-18T08:03:35;21.35;;;9.85;;
75059;SDS011;63640;59.264;18.116;2022-12-18T08:06:05;19.90;;;8.13;;
75059;SDS011;63640;59.264;18.116;2022-12-18T08:08:33;20.08;;;8.50;;
75059;SDS011;63640;59.264;18.116;2022-12-18T08:10:59;18.00;;;8.32;;
75059;SDS011;63640;59.264;18.116;2022-12-18T08:13:25;24.50;;;9.60;;
75059;SDS011;63640;59.264;18.116;2022-12-18T08:15:57;19.35;;;8.93;;
75059;SDS011;63640;59.264;18.116;2022-12-18T08:18:24;17.17;;;8.45;;
75059;SDS011;63640;59.264;18.116;2022-12-18T08:20:50;27.50;;;9.38;;
75059;SDS011;63640;59.264;18.116;2022-12-18T08:23:16;21.08;;;8.93;;
75059;SDS011;63640;59.264;18.116;2022-12-18T08:25:41;16.05;;;8.10;;
75059;SDS011;63640;59.264;18.116;2022-12-18T08:28:07;22.90;;;9.45;;
75059;SDS011;63640;59.264;18.116;2022-12-18T08:30:32;22.10;;;8.55;;
75059;SDS011;63640;59.264;18.116;2022-12-18T08:32:58;18.98;;;9.20;;
75059;SDS011;63640;59.264;18.116;2022-12-18T08:35:23;21.15;;;9.85;;
75059;SDS011;63640;59.264;18.116;2022-12-18T08:37:49;21.35;;;8.65;;
75059;SDS011;63640;59.264;18.116;2022-12-18T08:40:15;24.15;;;10.23;;
75059;SDS011;63640;59.264;18.116;2022-12-18T08:42:40;19.40;;;8.85;;
75059;SDS011;63640;59.264;18.116;2022-12-18T08:45:24;17.73;;;8.00;;
75059;SDS011;63640;59.264;18.116;2022-12-18T08:47:50;21.17;;;8.88;;
75059;SDS011;63640;59.264;18.116;2022-12-18T08:50:15;21.90;;;9.48;;
75059;SDS011;63640;59.264;18.116;2022-12-18T08:52:41;17.27;;;8.32;;
75059;SDS011;63640;59.264;18.116;2022-12-18T08:55:06;19.52;;;8.88;;
75059;SDS011;63640;59.264;18.116;2022-12-18T08:57:33;20.45;;;10.00;;
75059;SDS011;63640;59.264;18.116;2022-12-18T08:59:58;18.75;;;9.00;;
75059;SDS011;63640;59.264;18.116;2022-12-18T09:02:24;18.48;;;8.52;;
75059;SDS011;63640;59.264;18.116;2022-12-18T09:04:49;24.90;;;9.43;;
75059;SDS011;63640;59.264;18.116;2022-12-18T09:07:15;20.45;;;9.50;;
75059;SDS011;63640;59.264;18.116;2022-12-18T09:09:40;22.00;;;9.98;;
75059;SDS011;63640;59.264;18.116;2022-12-18T09:12:06;19.08;;;8.23;;
75059;SDS011;63640;59.264;18.116;2022-12-18T09:14:31;17.80;;;8.25;;
75059;SDS011;63640;59.264;18.116;2022-12-18T09:16:57;20.63;;;8.50;;
75059;SDS011;63640;59.264;18.116;2022-12-18T09:19:22;17.52;;;8.30;;
75059;SDS011;63640;59.264;18.116;2022-12-18T09:21:48;18.90;;;8.98;;
75059;SDS011;63640;59.264;18.116;2022-12-18T09:24:14;16.25;;;7.97;;
75059;SDS011;63640;59.264;18.116;2022-12-18T09:26:39;21.23;;;7.32;;
75059;SDS011;63640;59.264;18.116;2022-12-18T09:29:05;19.35;;;8.27;;
75059;SDS011;63640;59.264;18.116;2022-12-18T09:31:32;14.85;;;7.07;;
75059;SDS011;63640;59.264;18.116;2022-12-18T09:33:58;17.42;;;7.70;;
75059;SDS011;63640;59.264;18.116;2022-12-18T09:36:23;13.77;;;6.35;;
75059;SDS011;63640;59.264;18.116;2022-12-18T09:38:49;17.52;;;8.43;;
75059;SDS011;63640;59.264;18.116;2022-12-18T09:44:23;19.00;;;7.38;;
75059;SDS011;63640;59.264;18.116;2022-12-18T09:49:19;17.08;;;7.25;;
75059;SDS011;63640;59.264;18.116;2022-12-18T09:51:52;15.35;;;7.38;;
75059;SDS011;63640;59.264;18.116;2022-12-18T09:54:22;17.45;;;9.07;;
75059;SDS011;63640;59.264;18.116;2022-12-18T09:57:17;16.65;;;7.82;;
75059;SDS011;63640;59.264;18.116;2022-12-18T09:59:46;17.90;;;7.50;;
75059;SDS011;63640;59.264;18.116;2022-12-18T10:02:17;22.77;;;8.15;;
75059;SDS011;63640;59.264;18.116;2022-12-18T10:04:47;17.15;;;6.38;;
75059;SDS011;63640;59.264;18.116;2022-12-18T10:10:28;19.17;;;7.90;;
75059;SDS011;63640;59.264;18.116;2022-12-18T10:21:10;16.63;;;6.97;;
75059;SDS011;63640;59.264;18.116;2022-12-18T10:26:07;16.10;;;7.55;;
75059;SDS011;63640;59.264;18.116;2022-12-18T10:28:35;15.98;;;7.20;;
75059;SDS011;63640;59.264;18.116;2022-12-18T10:31:01;16.70;;;6.95;;
75059;SDS011;63640;59.264;18.116;2022-12-18T10:33:29;16.23;;;6.95;;
75059;SDS011;63640;59.264;18.116;2022-12-18T10:35:56;20.35;;;8.90;;
75059;SDS011;63640;59.264;18.116;2022-12-18T10:38:29;15.35;;;8.90;;
75059;SDS011;63640;59.264;18.116;2022-12-18T10:40:58;15.18;;;7.40;;
75059;SDS011;63640;59.264;18.116;2022-12-18T10:45:59;15.75;;;7.68;;
75059;SDS011;63640;59.264;18.116;2022-12-18T10:51:09;17.52;;;7.75;;
75059;SDS011;63640;59.264;18.116;2022-12-18T10:53:35;15.30;;;7.70;;
75059;SDS011;63640;59.264;18.116;2022-12-18T10:56:02;16.38;;;8.50;;
75059;SDS011;63640;59.264;18.116;2022-12-18T10:58:30;18.90;;;8.02;;
75059;SDS011;63640;59.264;18.116;2022-12-18T11:06:20;19.75;;;8.05;;
75059;SDS011;63640;59.264;18.116;2022-12-18T11:11:28;14.98;;;7.55;;
75059;SDS011;63640;59.264;18.116;2022-12-18T11:14:04;17.10;;;8.50;;
75059;SDS011;63640;59.264;18.116;2022-12-18T11:16:34;18.77;;;7.95;;
75059;SDS011;63640;59.264;18.116;2022-12-18T11:19:10;13.80;;;6.95;;
75059;SDS011;63640;59.264;18.116;2022-12-18T11:21:51;18.23;;;9.68;;
75059;SDS011;63640;59.264;18.116;2022-12-18T11:24:22;16.52;;;8.18;;
75059;SDS011;63640;59.264;18.116;2022-12-18T11:26:48;17.70;;;7.53;;
75059;SDS011;63640;59.264;18.116;2022-12-18T11:29:18;16.80;;;7.30;;
75059;SDS011;63640;59.264;18.116;2022-12-18T11:31:48;17.38;;;7.90;;
75059;SDS011;63640;59.264;18.116;2022-12-18T11:34:19;16.23;;;7.97;;
75059;SDS011;63640;59.264;18.116;2022-12-18T11:36:48;17.65;;;7.35;;
75059;SDS011;63640;59.264;18.116;2022-12-18T11:39:16;18.73;;;7.43;;
75059;SDS011;63640;59.264;18.116;2022-12-18T11:41:49;14.90;;;5.97;;
75059;SDS011;63640;59.264;18.116;2022-12-18T11:44:57;20.88;;;7.97;;
75059;SDS011;63640;59.264;18.116;2022-12-18T11:50:19;21.08;;;7.90;;
75059;SDS011;63640;59.264;18.116;2022-12-18T11:52:47;17.35;;;8.60;;
75059;SDS011;63640;59.264;18.116;2022-12-18T11:55:14;17.05;;;7.45;;
75059;SDS011;63640;59.264;18.116;2022-12-18T12:00:58;16.95;;;8.13;;
75059;SDS011;63640;59.264;18.116;2022-12-18T12:06:14;14.57;;;6.95;;
75059;SDS011;63640;59.264;18.116;2022-12-18T12:16:58;15.48;;;7.78;;
75059;SDS011;63640;59.264;18.116;2022-12-18T12:19:54;16.58;;;8.00;;
75059;SDS011;63640;59.264;18.116;2022-12-18T12:32:49;17.13;;;8.10;;
75059;SDS011;63640;59.264;18.116;2022-12-18T12:38:12;16.92;;;7.10;;
75059;SDS011;63640;59.264;18.116;2022-12-18T12:40:41;16.40;;;7.10;;
75059;SDS011;63640;59.264;18.116;2022-12-18T12:43:33;16.00;;;7.15;;
75059;SDS011;63640;59.264;18.116;2022-12-18T12:46:08;15.30;;;6.97;;
75059;SDS011;63640;59.264;18.116;2022-12-18T12:48:48;15.90;;;6.30;;
75059;SDS011;63640;59.264;18.116;2022-12-18T12:51:22;16.65;;;7.18;;
75059;SDS011;63640;59.264;18.116;2022-12-18T12:53:53;16.58;;;7.38;;
75059;SDS011;63640;59.264;18.116;2022-12-18T12:56:20;17.52;;;6.97;;
75059;SDS011;63640;59.264;18.116;2022-12-18T13:01:37;16.90;;;7.82;;
75059;SDS011;63640;59.264;18.116;2022-12-18T13:20:38;18.13;;;7.57;;
75059;SDS011;63640;59.264;18.116;2022-12-18T13:28:16;18.83;;;7.55;;
75059;SDS011;63640;59.264;18.116;2022-12-18T13:30:45;16.63;;;7.78;;
75059;SDS011;63640;59.264;18.116;2022-12-18T13:38:46;15.10;;;5.53;;
75059;SDS011;63640;59.264;18.116;2022-12-18T13:51:22;14.75;;;5.68;;
75059;SDS011;63640;59.264;18.116;2022-12-18T13:53:55;15.05;;;5.50;;
75059;SDS011;63640;59.264;18.116;2022-12-18T13:56:31;15.68;;;5.82;;
75059;SDS011;63640;59.264;18.116;2022-12-18T14:01:56;12.50;;;5.72;;
75059;SDS011;63640;59.264;18.116;2022-12-18T14:04:25;14.02;;;6.25;;
75059;SDS011;63640;59.264;18.116;2022-12-18T14:07:25;14.65;;;5.32;;
75059;SDS011;63640;59.264;18.116;2022-12-18T14:09:57;15.05;;;6.03;;
75059;SDS011;63640;59.264;18.116;2022-12-18T14:12:25;16.42;;;6.13;;
75059;SDS011;63640;59.264;18.116;2022-12-18T14:18:18;18.75;;;6.80;;
75059;SDS011;63640;59.264;18.116;2022-12-18T14:20:59;15.93;;;7.30;;
75059;SDS011;63640;59.264;18.116;2022-12-18T14:23:37;13.45;;;5.35;;
75059;SDS011;63640;59.264;18.116;2022-12-18T14:28:59;13.98;;;5.20;;
75059;SDS011;63640;59.264;18.116;2022-12-18T14:31:35;16.05;;;6.63;;
75059;SDS011;63640;59.264;18.116;2022-12-18T14:34:01;11.25;;;5.25;;
75059;SDS011;63640;59.264;18.116;2022-12-18T14:36:27;17.10;;;6.70;;
75059;SDS011;63640;59.264;18.116;2022-12-18T14:38:57;13.07;;;5.65;;
75059;SDS011;63640;59.264;18.116;2022-12-18T14:41:24;10.75;;;4.32;;
75059;SDS011;63640;59.264;18.116;2022-12-18T14:43:51;11.25;;;5.03;;
75059;SDS011;63640;59.264;18.116;2022-12-18T14:46:37;20.23;;;8.55;;
75059;SDS011;63640;59.264;18.116;2022-12-18T14:49:21;11.27;;;4.72;;
75059;SDS011;63640;59.264;18.116;2022-12-18T14:52:01;13.13;;;4.68;;
75059;SDS011;63640;59.264;18.116;2022-12-18T14:54:29;11.95;;;4.75;;
75059;SDS011;63640;59.264;18.116;2022-12-18T14:59:31;12.80;;;4.57;;
75059;SDS011;63640;59.264;18.116;2022-12-18T15:02:18;14.90;;;4.78;;
75059;SDS011;63640;59.264;18.116;2022-12-18T15:04:47;9.82;;;4.53;;
75059;SDS011;63640;59.264;18.116;2022-12-18T15:07:14;10.93;;;4.05;;
75059;SDS011;63640;59.264;18.116;2022-12-18T15:09:42;10.65;;;4.28;;
75059;SDS011;63640;59.264;18.116;2022-12-18T15:12:36;8.20;;;3.75;;
75059;SDS011;63640;59.264;18.116;2022-12-18T15:18:18;12.27;;;4.65;;
75059;SDS011;63640;59.264;18.116;2022-12-18T15:20:49;12.48;;;4.20;;
75059;SDS011;63640;59.264;18.116;2022-12-18T15:23:18;9.73;;;3.83;;
75059;SDS011;63640;59.264;18.116;2022-12-18T15:25:57;12.02;;;4.53;;
75059;SDS011;63640;59.264;18.116;2022-12-18T15:33:37;11.57;;;3.85;;
75059;SDS011;63640;59.264;18.116;2022-12-18T15:36:11;13.52;;;3.75;;
75059;SDS011;63640;59.264;18.116;2022-12-18T15:38:38;9.35;;;3.83;;
75059;SDS011;63640;59.264;18.116;2022-12-18T15:41:04;13.55;;;3.30;;
75059;SDS011;63640;59.264;18.116;2022-12-18T15:43:30;9.68;;;3.28;;
75059;SDS011;63640;59.264;18.116;2022-12-18T15:45:58;11.38;;;3.75;;
75059;SDS011;63640;59.264;18.116;2022-12-18T15:48:25;9.52;;;3.30;;
75059;SDS011;63640;59.264;18.116;2022-12-18T15:50:50;10.60;;;3.50;;
75059;SDS011;63640;59.264;18.116;2022-12-18T15:53:17;9.18;;;3.55;;
75059;SDS011;63640;59.264;18.116;2022-12-18T15:55:43;8.95;;;3.35;;
75059;SDS011;63640;59.264;18.116;2022-12-18T15:58:28;9.35;;;3.15;;
75059;SDS011;63640;59.264;18.116;2022-12-18T16:00:53;8.55;;;3.47;;
75059;SDS011;63640;59.264;18.116;2022-12-18T16:03:19;8.63;;;3.83;;
75059;SDS011;63640;59.264;18.116;2022-12-18T16:05:45;10.18;;;3.20;;
75059;SDS011;63640;59.264;18.116;2022-12-18T16:08:10;13.82;;;4.40;;
75059;SDS011;63640;59.264;18.116;2022-12-18T16:10:36;12.70;;;3.08;;
75059;SDS011;63640;59.264;18.116;2022-12-18T16:13:01;13.20;;;3.15;;
75059;SDS011;63640;59.264;18.116;2022-12-18T16:15:27;9.55;;;3.13;;
75059;SDS011;63640;59.264;18.116;2022-12-18T16:17:52;9.98;;;3.35;;
75059;SDS011;63640;59.264;18.116;2022-12-18T16:20:19;11.95;;;3.55;;
75059;SDS011;63640;59.264;18.116;2022-12-18T16:22:46;9.48;;;3.78;;
75059;SDS011;63640;59.264;18.116;2022-12-18T16:25:19;14.75;;;4.72;;
75059;SDS011;63640;59.264;18.116;2022-12-18T16:27:46;12.45;;;4.28;;
75059;SDS011;63640;59.264;18.116;2022-12-18T16:30:13;13.98;;;3.50;;
75059;SDS011;63640;59.264;18.116;2022-12-18T16:32:43;15.63;;;3.42;;
75059;SDS011;63640;59.264;18.116;2022-12-18T16:35:10;8.90;;;3.17;;
75059;SDS011;63640;59.264;18.116;2022-12-18T16:37:39;12.68;;;4.15;;
75059;SDS011;63640;59.264;18.116;2022-12-18T16:40:06;12.80;;;3.08;;
75059;SDS011;63640;59.264;18.116;2022-12-18T16:42:34;12.30;;;4.18;;
75059;SDS011;63640;59.264;18.116;2022-12-18T16:45:01;9.68;;;3.30;;
75059;SDS011;63640;59.264;18.116;2022-12-18T16:47:26;15.43;;;4.32;;
75059;SDS011;63640;59.264;18.116;2022-12-18T16:49:52;10.32;;;3.55;;
75059;SDS011;63640;59.264;18.116;2022-12-18T16:52:18;9.77;;;3.30;;
75059;SDS011;63640;59.264;18.116;2022-12-18T16:54:44;9.43;;;2.88;;
75059;SDS011;63640;59.264;18.116;2022-12-18T16:57:14;7.90;;;2.40;;